Paynesville, MN

2:34 AM CDT on September 27, 2016 (GMT -0500)
Paynesville

Weather History for KPEX - October, 2012

Change the Weather History Date:

Friday, October 26, 2012

  Actual Average (KLJF) Record (KLJF)
Temperature  
Mean Temperature 33 °F -  
Max Temperature 36 °F 57 °F 81 °F (1989)
Min Temperature 30 °F 35 °F 15 °F (1976)
Degree Days  
Heating Degree Days 32    
Moisture  
Dew Point 24 °F    
Average Humidity 68    
Maximum Humidity 83    
Minimum Humidity 55    
Precipitation  
Precipitation 0.00 in - - ()
Sea Level Pressure  
Sea Level Pressure 30.30 in    
Wind  
Wind Speed 12 mph (West)    
Max Wind Speed 20 mph    
Max Gust Speed 26 mph    
Visibility 10 miles    
Events      
Averages and records for this station are not official NWS values.
T = Trace of Precipitation, MM = Missing Value Source: NWS Daily Summary

Daily Weather History Graph

Daily Weather History Graph

Search for Another Location

Airport or City:

Trip Planner

Search our weather history database for the weather conditions in past years. The results will help you decide how hot, cold, wet, or windy it might be!

Date:

Astronomy

Oct. 26, 2012 Rise Set
Actual Time 7:50 AM CDT 6:14 PM CDT
Civil Twilight 7:20 AM CDT 6:44 PM CDT
Nautical Twilight 6:45 AM CDT 7:19 PM CDT
Astronomical Twilight 6:11 AM CDT 7:53 PM CDT
Moon 4:36 PM CDT (10/26) 4:40 AM CDT (10/26)
Length of Visible Light 11h 24m
Length of Day
10h 23m
Waxing Gibbous, 91% of the Moon is Illuminated
Oct 26
Waxing Gibbous
Oct 29
Full
Nov 6
Last Quarter
Nov 13
New
Nov 20
First Quarter

Hourly Weather History & Observations

Time (CDT) Temp. Windchill Dew Point Humidity Pressure Visibility Wind Dir Wind Speed Gust Speed Precip Events Conditions
12:14 AM 33.8 °F 24.3 °F 25.9 °F 73% 30.16 in 10.0 mi West 13.8 mph - N/A   Mostly Cloudy
12:33 AM 33.8 °F 23.5 °F 26.1 °F 73% 30.17 in 10.0 mi West 16.1 mph - N/A   Mostly Cloudy
1:13 AM 33.8 °F 24.3 °F 25.2 °F 71% 30.18 in 10.0 mi West 13.8 mph 19.6 mph N/A   Mostly Cloudy
1:34 AM 33.1 °F 23.9 °F 25.3 °F 73% 30.19 in 10.0 mi West 12.7 mph - N/A   Scattered Clouds
1:54 AM 32.9 °F 23.7 °F 25.5 °F 74% 30.19 in 10.0 mi West 12.7 mph 17.3 mph N/A   Scattered Clouds
2:13 AM 32.4 °F 23.5 °F 25.7 °F 76% 30.19 in 10.0 mi West 11.5 mph - N/A   Scattered Clouds
2:33 AM 32.0 °F 23.0 °F 25.7 °F 78% 30.20 in 10.0 mi West 11.5 mph - N/A   Scattered Clouds
2:54 AM 31.8 °F 23.9 °F 25.7 °F 78% 30.21 in 10.0 mi West 9.2 mph - N/A   Clear
3:14 AM 31.1 °F 23.7 °F 25.5 °F 80% 30.21 in 10.0 mi West 8.1 mph - N/A   Scattered Clouds
3:53 AM 30.2 °F 21.9 °F 25.3 °F 82% 30.21 in 10.0 mi West 9.2 mph - N/A   Scattered Clouds
4:14 AM 30.6 °F 23.1 °F 25.3 °F 81% 30.21 in 10.0 mi West 8.1 mph - N/A   Overcast
4:34 AM 30.2 °F 23.4 °F 25.5 °F 83% 30.22 in 10.0 mi WSW 6.9 mph - N/A   Overcast
4:53 AM 30.7 °F 24.1 °F 25.7 °F 82% 30.22 in 10.0 mi West 6.9 mph - N/A   Overcast
5:13 AM 31.3 °F 23.3 °F 25.7 °F 80% 30.23 in 10.0 mi West 9.2 mph - N/A   Overcast
5:34 AM 32.7 °F 23.0 °F 25.3 °F 74% 30.24 in 10.0 mi West 13.8 mph 18.4 mph N/A   Overcast
5:53 AM 33.1 °F 23.4 °F 24.6 °F 71% 30.24 in 10.0 mi West 13.8 mph 19.6 mph N/A   Overcast
6:13 AM 33.3 °F 24.1 °F 24.1 °F 69% 30.25 in 10.0 mi West 12.7 mph 18.4 mph N/A   Overcast
6:33 AM 33.4 °F 23.9 °F 22.8 °F 65% 30.26 in 10.0 mi WNW 13.8 mph 24.2 mph N/A   Overcast
6:53 AM 33.4 °F 23.5 °F 22.5 °F 64% 30.28 in 10.0 mi West 15.0 mph 19.6 mph N/A   Overcast
7:13 AM 33.4 °F 22.0 °F 21.9 °F 63% 30.28 in 10.0 mi WNW 19.6 mph 26.5 mph N/A   Overcast
7:53 AM 33.3 °F 23.7 °F 22.1 °F 64% 30.30 in 10.0 mi West 13.8 mph 23.0 mph N/A   Overcast
8:33 AM 33.4 °F 23.5 °F 21.4 °F 61% 30.31 in 10.0 mi West 15.0 mph 21.9 mph N/A   Overcast
8:54 AM 33.6 °F 25.6 °F 21.4 °F 61% 30.32 in 10.0 mi WNW 10.4 mph 19.6 mph N/A   Overcast
9:13 AM 33.8 °F 24.3 °F 21.2 °F 60% 30.32 in 10.0 mi West 13.8 mph 20.7 mph N/A   Overcast
9:33 AM 33.8 °F 24.8 °F 22.1 °F 62% 30.33 in 10.0 mi West 12.7 mph 16.1 mph N/A   Overcast
9:53 AM 34.0 °F 23.8 °F 22.1 °F 62% 30.33 in 10.0 mi West 16.1 mph - N/A   Overcast
10:12 AM 34.0 °F 24.2 °F 21.9 °F 61% 30.34 in 10.0 mi West 15.0 mph 20.7 mph N/A   Overcast
10:33 AM 34.0 °F 23.4 °F 21.2 °F 60% 30.35 in 10.0 mi West 17.3 mph 25.3 mph N/A   Overcast
10:53 AM 34.3 °F 24.2 °F 20.7 °F 57% 30.35 in 10.0 mi West 16.1 mph 21.9 mph N/A   Overcast
11:13 AM 34.7 °F 25.9 °F 21.2 °F 58% 30.35 in 10.0 mi West 12.7 mph 19.6 mph N/A   Overcast
11:34 AM 34.3 °F 24.6 °F 22.1 °F 61% 30.35 in 10.0 mi West 15.0 mph - N/A   Overcast
11:53 AM 34.7 °F 25.5 °F 22.1 °F 60% 30.35 in 10.0 mi West 13.8 mph 17.3 mph N/A   Overcast
12:13 PM 34.7 °F 25.1 °F 22.3 °F 61% 30.35 in 10.0 mi West 15.0 mph - N/A   Overcast
12:34 PM 35.6 °F 25.5 °F 21.9 °F 58% 30.34 in 10.0 mi West 17.3 mph 20.7 mph N/A   Overcast
12:53 PM 35.6 °F 24.8 °F 21.7 °F 57% 30.35 in 10.0 mi West 19.6 mph 23.0 mph N/A   Overcast
1:13 PM 35.6 °F 26.6 °F 21.9 °F 58% 30.34 in 10.0 mi West 13.8 mph - N/A   Overcast
1:34 PM 36.0 °F 26.3 °F 21.4 °F 55% 30.34 in 10.0 mi West 16.1 mph - N/A   Overcast
1:53 PM 36.3 °F 28.4 °F 22.6 °F 58% 30.33 in 10.0 mi West 11.5 mph - N/A   Overcast
2:13 PM 36.0 °F 26.7 °F 23.0 °F 59% 30.33 in 10.0 mi West 15.0 mph - N/A   Overcast
2:33 PM 36.0 °F 27.5 °F 23.5 °F 61% 30.33 in 10.0 mi West 12.7 mph - N/A   Overcast
2:53 PM 36.3 °F 29.5 °F 23.4 °F 59% 30.32 in 10.0 mi West 9.2 mph - N/A   Overcast
3:13 PM 36.5 °F 27.8 °F 22.5 °F 57% 30.32 in 10.0 mi West 13.8 mph 18.4 mph N/A   Overcast
3:33 PM 36.1 °F 29.3 °F 23.2 °F 59% 30.32 in 10.0 mi WNW 9.2 mph - N/A   Overcast
3:53 PM 35.4 °F 28.4 °F 23.7 °F 62% 30.32 in 10.0 mi WNW 9.2 mph - N/A   Overcast
4:13 PM 34.9 °F 26.6 °F 23.7 °F 64% 30.33 in 10.0 mi West 11.5 mph - N/A   Overcast
4:33 PM 34.7 °F 26.9 °F 24.6 °F 67% 30.33 in 10.0 mi West 10.4 mph - N/A   Overcast
4:53 PM 34.9 °F 26.6 °F 24.1 °F 65% 30.33 in 10.0 mi West 11.5 mph - N/A   Overcast
5:14 PM 34.7 °F 26.4 °F 24.3 °F 66% 30.32 in 10.0 mi West 11.5 mph - N/A   Overcast
5:34 PM 34.7 °F 26.9 °F 23.9 °F 65% 30.33 in 10.0 mi West 10.4 mph - N/A   Overcast
5:53 PM 34.3 °F 26.5 °F 23.5 °F 65% 30.33 in 10.0 mi West 10.4 mph - N/A   Overcast
6:13 PM 34.0 °F 27.2 °F 23.9 °F 67% 30.33 in 10.0 mi West 8.1 mph - N/A   Overcast
6:33 PM 33.3 °F 26.4 °F 24.1 °F 69% 30.33 in 10.0 mi West 8.1 mph - N/A   Overcast
6:53 PM 32.9 °F 28.5 °F 24.3 °F 71% 30.33 in 10.0 mi WSW 4.6 mph - N/A   Overcast
7:13 PM 32.0 °F 26.4 °F 24.4 °F 74% 30.33 in 10.0 mi WSW 5.8 mph - N/A   Overcast
7:34 PM 31.8 °F 26.2 °F 24.3 °F 74% 30.33 in 10.0 mi WSW 5.8 mph - N/A   Mostly Cloudy
7:53 PM 31.8 °F 27.3 °F 23.9 °F 73% 30.33 in 10.0 mi WSW 4.6 mph - N/A   Overcast
8:13 PM 31.8 °F 27.3 °F 23.9 °F 73% 30.33 in 10.0 mi WSW 4.6 mph - N/A   Overcast
8:33 PM 31.5 °F 28.1 °F 24.4 °F 75% 30.33 in 10.0 mi WSW 3.5 mph - N/A   Overcast
8:53 PM 31.5 °F 28.1 °F 24.6 °F 76% 30.33 in 10.0 mi WSW 3.5 mph - N/A   Overcast
9:13 PM 30.9 °F - 25.5 °F 80% 30.33 in 10.0 mi Calm Calm - N/A   Overcast
9:33 PM 31.1 °F - 25.2 °F 79% 30.33 in 10.0 mi Calm Calm - N/A   Overcast
10:13 PM 32.0 °F 27.5 °F 25.0 °F 75% 30.33 in 10.0 mi WSW 4.6 mph - N/A   Overcast
10:33 PM 32.0 °F 28.7 °F 24.8 °F 75% 30.34 in 10.0 mi West 3.5 mph - N/A   Overcast
10:54 PM 31.8 °F 28.5 °F 25.3 °F 77% 30.33 in 10.0 mi SW 3.5 mph - N/A   Overcast
11:13 PM 32.0 °F 28.7 °F 26.1 °F 79% 30.33 in 10.0 mi WSW 3.5 mph - N/A   Overcast
11:33 PM 31.1 °F - 26.2 °F 82% 30.32 in 10.0 mi Calm Calm - N/A   Overcast